Skip Navigation LinksHome page > Weather > Current weather Skip Navigation Links

Current Weather

Los Angeles Intl, Los Angeles

For information only: do not use for flight planning or navigation.
Latest weather
Observation time Sunday, September 20, 2020 7:02 AM PDT
Local time Sunday, September 20, 2020 7:18 AM PDT
Flight conditions Instrument Meteorological Conditions
Winds
Wind direction East (90°)
Wind speed 5 mph
Visibility 2 mi.
Present weather fog patches
Sky condition
Ceiling unlimited
Cloud layer few clouds 0 ft.
Cloud layer scattered clouds 300 ft.
Cloud layer scattered clouds 4,000 ft.
Temperature 61°F
Dewpoint 59°F
Altimeter 29.88 in.Hg
Derived measurements
Relative humidity 94%
Density altitude 527 ft.
Remarks
Special weather observation.
METAR SPUS81 KWBC 201406 SPECI KLAX 201402Z 09004KT 2SM BCFG FEW000 SCT003 SCT040 16/15 A2988

Settings

Location code

InnerDrive.Weather 4.0.6770.0 Release CLR 4.0.30319.42000
Copyright ©2018 Inner Drive Technology. All rights reserved. Portions Copyright ©1986-2018 David Braverman.

Find weather

Site navigation


Skip Navigation Links

Place info

Page info

PayPal - The safer, easier way to pay online!

Return home.

Copyright ©2020 Inner Drive Technology. Purveyors of fine, hand-crafted computer software. Page printed 2020-09-20T14:18:28 UTC.